DLH512 EDDF-EDDL
Flight info
| Callsign | DLH512 |
|---|---|
| Flight time | 0h 26m |
| Altitude | 24000 |
| Route | MARUN3W MARUN Y152 ARPEG Z850 ADEMI T854 DOMUX DOMUX1A |
| Aircraft | A346/H-SDE2E3FGHIJ3J4J5M1RWXY/LB1D1 |
Departure
| Time | 2026-05-05 12:53 |
|---|---|
| Airport | Frankfurt Main Airport (EDDF) |
Arrival
| Time | 2026-05-05 13:20 |
|---|---|
| Airport | Düsseldorf Airport (EDDL) |
| Time | Latitude | Longitude | Altitude | Speed | Heading |
|---|---|---|---|---|---|
| 2026-05-05 12:31 | 50.04723 | 8.56277 | 364 ft | 0 kts | 340° |
| 2026-05-05 12:39 | 50.04725 | 8.56276 | 370 ft | 0 kts | 340° |
| 2026-05-05 12:40 | 50.04719 | 8.56279 | 364 ft | 2 kts | 340° |
| 2026-05-05 12:40 | 50.04691 | 8.56297 | 370 ft | 6 kts | 327° |
| 2026-05-05 12:40 | 50.04669 | 8.56328 | 371 ft | 1 kts | 310° |
| 2026-05-05 12:40 | 50.04664 | 8.56339 | 369 ft | 3 kts | 296° |
| 2026-05-05 12:41 | 50.04658 | 8.56401 | 370 ft | 5 kts | 257° |
| 2026-05-05 12:41 | 50.04659 | 8.56410 | 370 ft | 0 kts | 251° |
| 2026-05-05 12:43 | 50.04654 | 8.56386 | 369 ft | 9 kts | 250° |
| 2026-05-05 12:43 | 50.04617 | 8.56228 | 366 ft | 14 kts | 249° |
| 2026-05-05 12:43 | 50.04579 | 8.56069 | 368 ft | 15 kts | 250° |
| 2026-05-05 12:43 | 50.04562 | 8.56002 | 365 ft | 5 kts | 236° |
| 2026-05-05 12:44 | 50.04478 | 8.55932 | 371 ft | 17 kts | 196° |
| 2026-05-05 12:44 | 50.04386 | 8.55912 | 366 ft | 13 kts | 171° |
| 2026-05-05 12:44 | 50.04289 | 8.55958 | 367 ft | 9 kts | 160° |
| 2026-05-05 12:44 | 50.04260 | 8.55959 | 367 ft | 1 kts | 214° |
| 2026-05-05 12:45 | 50.04238 | 8.55934 | 366 ft | 6 kts | 214° |
| 2026-05-05 12:45 | 50.04189 | 8.55915 | 367 ft | 2 kts | 166° |
| 2026-05-05 12:45 | 50.04166 | 8.55928 | 364 ft | 6 kts | 160° |
| 2026-05-05 12:45 | 50.04108 | 8.55962 | 364 ft | 7 kts | 159° |
| 2026-05-05 12:46 | 50.04078 | 8.55992 | 366 ft | 7 kts | 124° |
| 2026-05-05 12:46 | 50.04078 | 8.56070 | 367 ft | 9 kts | 70° |
| 2026-05-05 12:46 | 50.04106 | 8.56189 | 368 ft | 15 kts | 70° |
| 2026-05-05 12:46 | 50.04153 | 8.56385 | 366 ft | 22 kts | 69° |
| 2026-05-05 12:47 | 50.04209 | 8.56618 | 367 ft | 24 kts | 69° |
| 2026-05-05 12:47 | 50.04267 | 8.56865 | 372 ft | 25 kts | 70° |
| 2026-05-05 12:47 | 50.04330 | 8.57128 | 373 ft | 26 kts | 69° |
| 2026-05-05 12:47 | 50.04397 | 8.57408 | 375 ft | 28 kts | 69° |
| 2026-05-05 12:48 | 50.04467 | 8.57703 | 376 ft | 29 kts | 70° |
| 2026-05-05 12:48 | 50.04542 | 8.58015 | 377 ft | 31 kts | 70° |
| 2026-05-05 12:48 | 50.04620 | 8.58343 | 379 ft | 32 kts | 70° |
| 2026-05-05 12:48 | 50.04674 | 8.58571 | 380 ft | 16 kts | 70° |
| 2026-05-05 12:49 | 50.04697 | 8.58687 | 381 ft | 6 kts | 103° |
| 2026-05-05 12:49 | 50.04666 | 8.58748 | 383 ft | 8 kts | 146° |
| 2026-05-05 12:49 | 50.04660 | 8.58753 | 381 ft | 2 kts | 156° |
| 2026-05-05 12:49 | 50.04623 | 8.58747 | 382 ft | 13 kts | 197° |
| 2026-05-05 12:50 | 50.04532 | 8.58662 | 382 ft | 17 kts | 221° |
| 2026-05-05 12:50 | 50.04464 | 8.58493 | 379 ft | 13 kts | 249° |
| 2026-05-05 12:50 | 50.04461 | 8.58481 | 381 ft | 0 kts | 249° |
| 2026-05-05 12:52 | 50.04443 | 8.58409 | 382 ft | 32 kts | 249° |
| 2026-05-05 12:53 | 50.04271 | 8.57691 | 372 ft | 105 kts | 249° |
| 2026-05-05 12:53 | 50.03941 | 8.56306 | 364 ft | 163 kts | 249° |
| 2026-05-05 12:53 | 50.03493 | 8.54446 | 746 ft | 184 kts | 249° |
| 2026-05-05 12:53 | 50.03036 | 8.52548 | 1477 ft | 188 kts | 249° |
| 2026-05-05 12:54 | 50.02714 | 8.48574 | 3015 ft | 189 kts | 276° |
| 2026-05-05 12:54 | 50.02888 | 8.46471 | 3569 ft | 199 kts | 277° |
| 2026-05-05 12:54 | 50.03095 | 8.44273 | 4141 ft | 210 kts | 277° |
| 2026-05-05 12:55 | 50.03495 | 8.41997 | 4649 ft | 228 kts | 294° |
| 2026-05-05 12:55 | 50.04471 | 8.39848 | 4998 ft | 255 kts | 315° |
| 2026-05-05 12:55 | 50.05958 | 8.38139 | 5511 ft | 274 kts | 328° |
| 2026-05-05 12:55 | 50.07607 | 8.36579 | 6372 ft | 280 kts | 327° |
| 2026-05-05 12:56 | 50.09255 | 8.34899 | 7303 ft | 282 kts | 324° |
| 2026-05-05 12:56 | 50.10933 | 8.33284 | 8220 ft | 288 kts | 338° |
| 2026-05-05 12:56 | 50.12930 | 8.32784 | 9150 ft | 293 kts | 6° |
| 2026-05-05 12:56 | 50.14931 | 8.33537 | 10132 ft | 296 kts | 18° |
| 2026-05-05 12:57 | 50.16893 | 8.34545 | 10868 ft | 309 kts | 19° |
| 2026-05-05 12:57 | 50.18997 | 8.35635 | 11414 ft | 327 kts | 18° |
| 2026-05-05 12:57 | 50.21255 | 8.36764 | 11938 ft | 345 kts | 18° |
| 2026-05-05 12:57 | 50.23616 | 8.37908 | 12449 ft | 364 kts | 17° |
| 2026-05-05 12:58 | 50.26108 | 8.39097 | 12943 ft | 383 kts | 17° |
| 2026-05-05 12:58 | 50.27860 | 8.39928 | 13275 ft | 394 kts | 17° |
| 2026-05-05 12:58 | 50.30489 | 8.41172 | 14002 ft | 402 kts | 14° |
| 2026-05-05 12:58 | 50.33328 | 8.41358 | 14776 ft | 407 kts | 349° |
| 2026-05-05 12:59 | 50.35996 | 8.39815 | 15643 ft | 408 kts | 330° |
| 2026-05-05 12:59 | 50.38453 | 8.37539 | 16494 ft | 412 kts | 327° |
| 2026-05-05 12:59 | 50.40967 | 8.35161 | 17262 ft | 419 kts | 328° |
| 2026-05-05 13:00 | 50.46134 | 8.30643 | 18742 ft | 430 kts | 330° |
| 2026-05-05 13:00 | 50.48811 | 8.28444 | 19456 ft | 434 kts | 331° |
| 2026-05-05 13:01 | 50.56063 | 8.19975 | 21475 ft | 442 kts | 304° |
| 2026-05-05 13:01 | 50.57845 | 8.16002 | 21827 ft | 444 kts | 302° |
| 2026-05-05 13:01 | 50.59612 | 8.11977 | 21856 ft | 444 kts | 303° |
| 2026-05-05 13:01 | 50.61415 | 8.07960 | 21861 ft | 444 kts | 303° |
| 2026-05-05 13:02 | 50.63230 | 8.04017 | 21865 ft | 444 kts | 304° |
| 2026-05-05 13:02 | 50.65066 | 8.00097 | 21862 ft | 444 kts | 304° |
| 2026-05-05 13:02 | 50.66922 | 7.96176 | 21863 ft | 444 kts | 305° |
| 2026-05-05 13:02 | 50.68780 | 7.92271 | 21864 ft | 445 kts | 305° |
| 2026-05-05 13:03 | 50.70647 | 7.88358 | 21858 ft | 444 kts | 305° |
| 2026-05-05 13:03 | 50.72521 | 7.84430 | 21856 ft | 445 kts | 305° |
| 2026-05-05 13:03 | 50.74377 | 7.80537 | 21856 ft | 444 kts | 305° |
| 2026-05-05 13:03 | 50.76244 | 7.76618 | 21850 ft | 444 kts | 305° |
| 2026-05-05 13:04 | 50.78101 | 7.72713 | 21802 ft | 439 kts | 305° |
| 2026-05-05 13:04 | 50.79923 | 7.68881 | 21254 ft | 435 kts | 305° |
| 2026-05-05 13:04 | 50.81752 | 7.65022 | 20543 ft | 435 kts | 305° |
| 2026-05-05 13:04 | 50.83597 | 7.61125 | 19993 ft | 431 kts | 305° |
| 2026-05-05 13:05 | 50.85406 | 7.57299 | 19430 ft | 427 kts | 305° |
| 2026-05-05 13:05 | 50.87194 | 7.53511 | 18904 ft | 423 kts | 305° |
| 2026-05-05 13:05 | 50.88963 | 7.49759 | 18356 ft | 420 kts | 305° |
| 2026-05-05 13:05 | 50.90736 | 7.45994 | 17768 ft | 416 kts | 305° |
| 2026-05-05 13:06 | 50.92457 | 7.42338 | 17168 ft | 412 kts | 305° |
| 2026-05-05 13:06 | 50.94176 | 7.38680 | 16578 ft | 409 kts | 305° |
| 2026-05-05 13:06 | 50.95856 | 7.35100 | 15988 ft | 406 kts | 305° |
| 2026-05-05 13:06 | 50.97536 | 7.31513 | 15439 ft | 402 kts | 305° |
| 2026-05-05 13:07 | 50.99200 | 7.27956 | 14898 ft | 399 kts | 305° |
| 2026-05-05 13:07 | 51.00852 | 7.24420 | 14372 ft | 396 kts | 305° |
| 2026-05-05 13:07 | 51.02484 | 7.20920 | 13852 ft | 393 kts | 305° |
| 2026-05-05 13:07 | 51.04117 | 7.17416 | 13284 ft | 389 kts | 305° |
| 2026-05-05 13:08 | 51.05722 | 7.13966 | 12699 ft | 386 kts | 304° |
| 2026-05-05 13:08 | 51.07316 | 7.10535 | 12136 ft | 383 kts | 304° |
| 2026-05-05 13:08 | 51.08895 | 7.07131 | 11590 ft | 380 kts | 304° |
| 2026-05-05 13:08 | 51.10459 | 7.03757 | 11008 ft | 378 kts | 304° |
| 2026-05-05 13:09 | 51.12039 | 7.00347 | 10448 ft | 375 kts | 304° |
| 2026-05-05 13:09 | 51.13587 | 6.96999 | 9919 ft | 372 kts | 304° |
| 2026-05-05 13:09 | 51.15140 | 6.93634 | 9358 ft | 369 kts | 304° |
| 2026-05-05 13:09 | 51.16620 | 6.90423 | 9159 ft | 357 kts | 304° |
| 2026-05-05 13:10 | 51.18080 | 6.87254 | 8923 ft | 346 kts | 304° |
| 2026-05-05 13:10 | 51.19239 | 6.83972 | 8314 ft | 330 kts | 283° |
| 2026-05-05 13:10 | 51.19366 | 6.80455 | 7858 ft | 308 kts | 257° |
| 2026-05-05 13:10 | 51.18658 | 6.77375 | 7504 ft | 287 kts | 236° |
| 2026-05-05 13:11 | 51.17492 | 6.74862 | 7197 ft | 270 kts | 229° |
| 2026-05-05 13:11 | 51.16317 | 6.72550 | 6652 ft | 266 kts | 230° |
| 2026-05-05 13:11 | 51.15169 | 6.70255 | 6243 ft | 258 kts | 231° |
| 2026-05-05 13:11 | 51.14089 | 6.68048 | 6113 ft | 248 kts | 231° |
| 2026-05-05 13:12 | 51.13041 | 6.65888 | 5871 ft | 245 kts | 231° |
| 2026-05-05 13:12 | 51.12003 | 6.63737 | 5563 ft | 244 kts | 231° |
| 2026-05-05 13:12 | 51.10966 | 6.61585 | 5250 ft | 244 kts | 231° |
| 2026-05-05 13:12 | 51.09929 | 6.59431 | 4951 ft | 244 kts | 232° |
| 2026-05-05 13:13 | 51.08904 | 6.57301 | 4709 ft | 240 kts | 232° |
| 2026-05-05 13:13 | 51.07897 | 6.55210 | 4554 ft | 234 kts | 232° |
| 2026-05-05 13:13 | 51.06905 | 6.53154 | 4293 ft | 232 kts | 232° |
| 2026-05-05 13:13 | 51.06018 | 6.51016 | 4002 ft | 231 kts | 251° |
| 2026-05-05 13:14 | 51.05905 | 6.48501 | 3989 ft | 232 kts | 284° |
| 2026-05-05 13:14 | 51.06642 | 6.46279 | 3805 ft | 230 kts | 315° |
| 2026-05-05 13:14 | 51.08032 | 6.45011 | 3442 ft | 232 kts | 349° |
| 2026-05-05 13:14 | 51.09635 | 6.45139 | 3169 ft | 230 kts | 15° |
| 2026-05-05 13:15 | 51.11134 | 6.45974 | 2999 ft | 227 kts | 21° |
| 2026-05-05 13:15 | 51.12578 | 6.46918 | 3004 ft | 228 kts | 22° |
| 2026-05-05 13:15 | 51.14051 | 6.47911 | 2996 ft | 228 kts | 26° |
| 2026-05-05 13:15 | 51.15377 | 6.49289 | 2993 ft | 228 kts | 41° |
| 2026-05-05 13:16 | 51.16471 | 6.51105 | 2994 ft | 227 kts | 49° |
| 2026-05-05 13:16 | 51.17534 | 6.53176 | 3025 ft | 253 kts | 51° |
| 2026-05-05 13:16 | 51.18612 | 6.55422 | 3013 ft | 251 kts | 53° |
| 2026-05-05 13:16 | 51.19631 | 6.57600 | 2872 ft | 240 kts | 53° |
| 2026-05-05 13:17 | 51.20591 | 6.59649 | 2690 ft | 217 kts | 52° |
| 2026-05-05 13:17 | 51.21463 | 6.61497 | 2388 ft | 200 kts | 52° |
| 2026-05-05 13:17 | 51.22273 | 6.63208 | 2063 ft | 185 kts | 52° |
| 2026-05-05 13:17 | 51.23011 | 6.64769 | 1784 ft | 165 kts | 51° |
| 2026-05-05 13:18 | 51.23659 | 6.66141 | 1576 ft | 145 kts | 50° |
| 2026-05-05 13:18 | 51.24266 | 6.67410 | 1431 ft | 141 kts | 51° |
| 2026-05-05 13:18 | 51.24849 | 6.68683 | 1194 ft | 140 kts | 52° |
| 2026-05-05 13:18 | 51.25422 | 6.69932 | 972 ft | 139 kts | 50° |
| 2026-05-05 13:19 | 51.26014 | 6.71168 | 803 ft | 140 kts | 49° |
| 2026-05-05 13:19 | 51.26617 | 6.72393 | 643 ft | 139 kts | 49° |
| 2026-05-05 13:19 | 51.27201 | 6.73626 | 426 ft | 138 kts | 47° |
| 2026-05-05 13:19 | 51.27790 | 6.74841 | 212 ft | 138 kts | 48° |
| 2026-05-05 13:20 | 51.28372 | 6.76048 | 122 ft | 111 kts | 61° |
| 2026-05-05 13:20 | 51.28788 | 6.76932 | 124 ft | 82 kts | 52° |
| 2026-05-05 13:20 | 51.29048 | 6.77478 | 122 ft | 45 kts | 52° |
| 2026-05-05 13:20 | 51.29220 | 6.77838 | 123 ft | 25 kts | 53° |
| 2026-05-05 13:21 | 51.29282 | 6.77968 | 123 ft | 11 kts | 53° |
| 2026-05-05 13:21 | 51.29300 | 6.78112 | 125 ft | 11 kts | 116° |
| 2026-05-05 13:21 | 51.29256 | 6.78193 | 124 ft | 3 kts | 151° |
| 2026-05-05 13:21 | 51.29248 | 6.78199 | 122 ft | 3 kts | 155° |
| 2026-05-05 13:22 | 51.29236 | 6.78206 | 123 ft | 2 kts | 162° |
| 2026-05-05 13:22 | 51.29207 | 6.78213 | 124 ft | 6 kts | 179° |
| 2026-05-05 13:22 | 51.29190 | 6.78212 | 123 ft | 2 kts | 183° |
| 2026-05-05 13:22 | 51.29158 | 6.78167 | 122 ft | 0 kts | 245° |
| 2026-05-05 13:23 | 51.29133 | 6.78117 | 122 ft | 11 kts | 230° |
| 2026-05-05 13:23 | 51.29076 | 6.78001 | 123 ft | 15 kts | 232° |
| 2026-05-05 13:23 | 51.29004 | 6.77857 | 125 ft | 12 kts | 231° |
| 2026-05-05 13:23 | 51.28953 | 6.77756 | 122 ft | 12 kts | 232° |
| 2026-05-05 13:24 | 51.28906 | 6.77709 | 123 ft | 8 kts | 167° |
| 2026-05-05 13:24 | 51.28845 | 6.77764 | 122 ft | 12 kts | 143° |
| 2026-05-05 13:24 | 51.28778 | 6.77845 | 123 ft | 7 kts | 143° |
| 2026-05-05 13:24 | 51.28731 | 6.77852 | 123 ft | 8 kts | 211° |
| 2026-05-05 13:25 | 51.28684 | 6.77770 | 122 ft | 12 kts | 233° |
| 2026-05-05 13:25 | 51.28663 | 6.77640 | 122 ft | 13 kts | 255° |
| 2026-05-05 13:25 | 51.28608 | 6.77497 | 123 ft | 14 kts | 233° |
| 2026-05-05 13:25 | 51.28580 | 6.77437 | 122 ft | 0 kts | 233° |
| 2026-05-05 13:26 | 51.28564 | 6.77412 | 121 ft | 6 kts | 202° |
| 2026-05-05 13:26 | 51.28547 | 6.77415 | 122 ft | 0 kts | 148° |
| 2026-05-05 13:26 | 51.28543 | 6.77420 | 122 ft | 2 kts | 144° |
| 2026-05-05 13:26 | 51.28534 | 6.77430 | 122 ft | 1 kts | 144° |
| 2026-05-05 13:27 | 51.28526 | 6.77440 | 124 ft | 1 kts | 144° |
| 2026-05-05 13:27 | 51.28517 | 6.77450 | 122 ft | 0 kts | 144° |